Terminal Aerodrome Forecast
Issued by NWS Blacksburg, VA

Home | Current Version | Previous Version | Text Only | Print | Product List | Glossary On
Versions: 1 2 3 4 5 6 7 8 9 10 11 12 13 14 15 16 17 18 19 20 21 22 23 24 25 26 27 28
000
FTUS41 KRNK 221120
TAFBLF
TAF
KBLF 221120Z 2212/2312 27003KT P6SM FEW090
     FM221600 25006KT P6SM SCT060
     FM222200 24008KT P6SM VCSH BKN070
     FM230200 24006KT P6SM SCT110
     FM231000 27006KT P6SM -SHRA OVC003=

USA.gov is the U.S. government's official web portal to all federal, state and local government web resources and services.